Time;durP1;ratioP1;P1;durP2;ratioP2;P2;SDS_P1;SDS_P2;PMS_P1;PMS_P2;Temp;Humidity;BMP_temperature;BMP_pressure;BME280_temperature;BME280_humidity;BME280_pressure;Samples;Min_cycle;Max_cycle;Signal;HPM_P1;HPM_P2
2022/04/06 00:00:06;;;;;;;50.72;20.63;;;;;;;9.13;87.45;100323.38;4973382;28;20142;-64
2022/04/06 00:02:31;;;;;;;47.42;19.38;;;;;;;9.15;87.67;100320.66;4962320;28;20474;-62
2022/04/06 00:04:57;;;;;;;56.78;19.73;;;;;;;9.15;87.05;100321.50;4962168;28;20233;-62
2022/04/06 00:07:22;;;;;;;44.63;18.25;;;;;;;9.11;87.28;100320.00;4960894;28;20047;-62
2022/04/06 00:09:48;;;;;;;49.80;18.60;;;;;;;9.16;86.89;100320.53;4970732;28;20042;-62
2022/04/06 00:12:13;;;;;;;40.25;17.73;;;;;;;9.14;87.06;100318.94;4981507;28;20046;-61
2022/04/06 00:14:38;;;;;;;52.67;18.83;;;;;;;9.17;86.25;100313.41;4981259;28;20063;-62
2022/04/06 00:17:05;;;;;;;41.83;18.52;;;;;;;9.17;86.44;100311.59;4980139;28;20338;-62
2022/04/06 00:19:34;;;;;;;47.38;16.55;;;;;;;9.16;86.13;100311.72;4981191;28;20038;-62
2022/04/06 00:22:00;;;;;;;42.17;15.60;;;;;;;9.22;85.71;100306.81;4979436;28;20046;-62
2022/04/06 00:24:27;;;;;;;46.67;15.80;;;;;;;9.19;85.43;100303.53;4979982;28;20054;-62
2022/04/06 00:26:53;;;;;;;38.55;15.07;;;;;;;9.18;85.66;100302.66;4981176;28;20461;-61
2022/04/06 00:29:19;;;;;;;46.10;15.10;;;;;;;9.18;85.16;100299.16;4981259;28;20038;-62
2022/04/06 00:31:44;;;;;;;38.53;14.88;;;;;;;9.16;85.64;100293.09;4981383;28;20112;-62
2022/04/06 00:34:10;;;;;;;43.15;16.33;;;;;;;9.15;85.13;100297.56;4963365;28;20046;-62
2022/04/06 00:36:35;;;;;;;37.78;14.40;;;;;;;9.14;85.24;100293.19;4981377;28;20053;-62
2022/04/06 00:39:01;;;;;;;40.30;15.48;;;;;;;9.13;85.34;100288.81;4963708;28;20045;-62
2022/04/06 00:41:26;;;;;;;37.53;14.48;;;;;;;9.06;85.49;100290.19;4981226;28;20057;-62
2022/04/06 00:44:15;;;;;;;43.30;15.35;;;;;;;9.10;85.76;100290.84;4981035;28;20045;-62
2022/04/06 00:46:42;;;;;;;37.10;15.02;;;;;;;9.10;85.53;100296.16;4980481;28;20703;-62
2022/04/06 00:49:11;;;;;;;44.25;15.60;;;;;;;9.08;85.77;100289.13;4980322;28;20034;-62
2022/04/06 00:51:39;;;;;;;41.30;14.07;;;;;;;8.98;86.65;100288.00;4980616;28;20870;-62
2022/04/06 00:54:05;;;;;;;41.33;14.68;;;;;;;9.04;86.37;100292.09;4980869;28;20042;-62
2022/04/06 00:56:31;;;;;;;46.28;15.30;;;;;;;8.99;86.39;100295.06;4963095;28;20049;-62
2022/04/06 00:58:57;;;;;;;40.78;14.65;;;;;;;9.00;86.66;100295.91;4980794;28;20043;-62
2022/04/06 01:01:22;;;;;;;51.83;15.13;;;;;;;9.01;86.51;100286.97;4980826;28;20058;-62
2022/04/06 01:03:48;;;;;;;44.58;15.85;;;;;;;9.04;86.40;100284.97;4962731;28;20046;-62
2022/04/06 01:06:13;;;;;;;43.55;15.48;;;;;;;9.02;86.21;100278.03;4980136;28;20034;-63
2022/04/06 01:08:39;;;;;;;42.35;14.38;;;;;;;9.00;86.27;100279.97;4980492;28;20819;-61
2022/04/06 01:11:04;;;;;;;44.13;16.13;;;;;;;8.96;86.51;100273.97;4980190;28;20042;-62
2022/04/06 01:13:30;;;;;;;49.08;16.17;;;;;;;8.94;86.64;100270.59;4979729;28;20065;-62
2022/04/06 01:15:55;;;;;;;37.08;15.27;;;;;;;8.95;86.87;100266.13;4980473;28;20085;-62
2022/04/06 01:18:21;;;;;;;38.63;15.27;;;;;;;8.97;86.49;100270.34;4962944;28;20097;-62
2022/04/06 01:20:46;;;;;;;40.47;16.40;;;;;;;8.94;86.42;100269.72;4976161;28;20034;-62
2022/04/06 01:23:11;;;;;;;43.83;15.30;;;;;;;8.98;86.34;100258.75;4961507;28;20586;-62
2022/04/06 01:25:38;;;;;;;39.95;15.35;;;;;;;8.95;86.06;100260.78;4961155;28;20043;-62
2022/04/06 01:28:04;;;;;;;37.85;14.85;;;;;;;8.98;85.93;100258.75;4961086;28;20050;-62
2022/04/06 01:30:30;;;;;;;37.13;14.75;;;;;;;9.00;86.20;100259.53;4942885;28;20038;-62
2022/04/06 01:32:58;;;;;;;43.20;15.35;;;;;;;8.95;86.23;100264.31;4960551;28;20050;-62
2022/04/06 01:35:24;;;;;;;39.35;14.05;;;;;;;8.91;86.59;100260.13;4961130;28;20040;-62
2022/04/06 01:37:50;;;;;;;46.47;14.52;;;;;;;8.95;86.08;100258.13;4960942;28;20039;-62
2022/04/06 01:40:15;;;;;;;38.67;14.48;;;;;;;8.94;86.58;100249.31;4960919;28;20574;-62
2022/04/06 01:42:41;;;;;;;38.17;15.77;;;;;;;8.89;86.41;100248.75;4961047;28;20517;-62
2022/04/06 01:45:07;;;;;;;45.85;15.13;;;;;;;8.93;85.96;100244.06;4961002;28;20120;-62
2022/04/06 01:47:33;;;;;;;38.35;14.70;;;;;;;8.90;86.58;100252.28;4961292;28;20133;-62
2022/04/06 01:52:43;;;;;;;37.58;13.32;;;;;;;8.94;86.30;100248.47;4943528;28;20463;-62
2022/04/06 01:55:11;;;;;;;33.88;14.32;;;;;;;8.88;86.19;100238.19;4943088;28;20510;-62
2022/04/06 01:57:37;;;;;;;37.35;14.40;;;;;;;8.93;85.68;100238.75;4943322;28;20062;-62
2022/04/06 02:00:15;;;;;;;33.42;13.52;;;;;;;8.92;85.91;100237.91;4942701;28;20074;-62
2022/04/06 02:02:43;;;;;;;38.20;15.25;;;;;;;8.89;86.22;100239.94;4960680;28;20047;-62
2022/04/06 02:05:08;;;;;;;41.65;14.77;;;;;;;8.87;86.26;100237.34;4942240;28;20035;-62
2022/04/06 02:07:34;;;;;;;49.67;13.70;;;;;;;8.89;85.84;100239.94;4960436;28;20732;-61
2022/04/06 02:10:00;;;;;;;30.95;13.02;;;;;;;8.85;86.42;100244.59;4960113;28;20779;-62
2022/04/06 02:12:25;;;;;;;52.20;13.68;;;;;;;8.87;86.04;100237.34;4960755;28;20043;-62
2022/04/06 02:14:51;;;;;;;38.10;12.70;;;;;;;8.84;86.23;100226.94;4960298;28;20041;-62
2022/04/06 02:17:16;;;;;;;48.60;14.68;;;;;;;8.79;86.25;100227.25;4964120;28;20739;-65
2022/04/06 02:19:42;;;;;;;37.03;14.07;;;;;;;8.81;86.03;100222.66;4964334;28;20050;-62
2022/04/06 02:22:09;;;;;;;48.15;14.00;;;;;;;8.80;86.18;100236.06;4965057;28;20049;-62
2022/04/06 02:24:35;;;;;;;37.22;12.27;;;;;;;8.81;85.87;100227.13;4965727;28;20800;-61
2022/04/06 02:27:01;;;;;;;33.70;11.75;;;;;;;8.75;86.34;100232.88;4965295;28;20126;-61
2022/04/06 02:29:27;;;;;;;28.40;11.40;;;;;;;8.76;85.90;100232.75;4965084;28;20056;-61
2022/04/06 02:31:52;;;;;;;37.95;12.35;;;;;;;8.75;86.21;100235.53;4963634;28;20062;-61
2022/04/06 02:34:18;;;;;;;38.20;13.10;;;;;;;8.75;85.89;100231.06;4964210;28;20066;-61
2022/04/06 02:36:44;;;;;;;33.13;11.20;;;;;;;8.79;85.77;100229.06;4963642;28;20384;-61
2022/04/06 02:39:09;;;;;;;38.53;11.75;;;;;;;8.78;85.29;100224.66;4964362;28;20869;-62
2022/04/06 02:41:35;;;;;;;39.40;11.98;;;;;;;8.71;85.85;100216.25;4963978;28;20047;-61
2022/04/06 02:44:00;;;;;;;33.58;11.30;;;;;;;8.76;85.52;100218.59;4967478;28;20485;-60
2022/04/06 02:46:26;;;;;;;24.92;9.60;;;;;;;8.73;85.67;100210.81;4983231;28;20077;-61
2022/04/06 02:48:51;;;;;;;32.97;10.82;;;;;;;8.74;85.72;100213.41;4983111;28;20052;-63
2022/04/06 02:51:17;;;;;;;36.88;11.30;;;;;;;8.71;85.55;100215.41;4982966;28;20046;-60
2022/04/06 02:53:42;;;;;;;37.70;10.45;;;;;;;8.74;85.58;100215.22;4983019;28;20050;-61
2022/04/06 02:56:07;;;;;;;26.80;10.68;;;;;;;8.72;85.47;100212.63;4983229;28;20050;-61
2022/04/06 02:58:33;;;;;;;39.22;11.18;;;;;;;8.69;85.14;100226.16;4982789;28;20100;-61
2022/04/06 03:00:58;;;;;;;21.15;9.77;;;;;;;8.68;85.42;100212.94;4982517;28;20097;-60
2022/04/06 03:03:25;;;;;;;24.05;10.88;;;;;;;8.66;85.24;100212.19;4965268;28;20113;-61
2022/04/06 03:05:50;;;;;;;25.55;9.90;;;;;;;8.67;85.21;100209.44;4982720;28;20042;-61
2022/04/06 03:08:16;;;;;;;26.02;9.82;;;;;;;8.69;84.46;100210.19;4964679;28;20052;-61
2022/04/06 03:10:41;;;;;;;31.10;9.38;;;;;;;8.70;84.43;100206.59;4982820;28;20046;-62
2022/04/06 03:13:07;;;;;;;26.77;9.68;;;;;;;8.72;84.21;100203.81;4982909;28;20095;-61
2022/04/06 03:15:33;;;;;;;21.35;9.52;;;;;;;8.69;84.43;100199.56;4982905;28;20080;-61
2022/04/06 03:17:58;;;;;;;28.38;9.52;;;;;;;8.68;84.19;100202.31;4982630;28;20702;-60
2022/04/06 03:20:24;;;;;;;28.05;9.23;;;;;;;8.69;83.52;100204.88;4982276;28;20057;-62
2022/04/06 03:22:49;;;;;;;19.33;7.78;;;;;;;8.65;84.38;100195.41;4981666;28;20566;-61
2022/04/06 03:25:14;;;;;;;28.30;9.10;;;;;;;8.66;84.07;100190.94;4981327;28;20168;-61
2022/04/06 03:27:40;;;;;;;23.90;8.77;;;;;;;8.63;84.02;100191.13;4981077;28;20080;-61
2022/04/06 03:30:10;;;;;;;29.88;8.93;;;;;;;8.64;83.76;100188.38;4981085;28;20065;-61
2022/04/06 03:32:35;;;;;;;24.95;8.40;;;;;;;8.62;83.70;100190.28;4981048;28;20054;-61
2022/04/06 03:35:01;;;;;;;36.15;8.88;;;;;;;8.64;83.48;100182.22;4980992;28;20042;-61
2022/04/06 03:37:26;;;;;;;19.70;7.70;;;;;;;8.64;83.37;100188.38;4979956;28;20102;-61
2022/04/06 03:39:51;;;;;;;29.60;8.52;;;;;;;8.61;83.12;100188.56;4979450;28;20038;-61
2022/04/06 03:42:17;;;;;;;19.20;7.63;;;;;;;8.62;83.38;100173.47;4980426;28;20447;-61
2022/04/06 03:44:43;;;;;;;33.30;8.82;;;;;;;8.61;82.89;100177.09;4980604;28;20057;-61
2022/04/06 03:47:08;;;;;;;21.88;7.30;;;;;;;8.60;82.45;100164.78;4979944;28;20578;-60
2022/04/06 03:49:34;;;;;;;23.73;7.28;;;;;;;8.59;82.18;100166.56;4978405;28;20075;-61
2022/04/06 03:51:59;;;;;;;20.27;6.88;;;;;;;8.60;81.71;100164.78;4980328;28;20038;-61
2022/04/06 03:54:24;;;;;;;19.73;6.95;;;;;;;8.59;81.62;100174.56;4979465;28;20093;-61
2022/04/06 03:56:50;;;;;;;21.35;6.68;;;;;;;8.56;82.11;100174.75;4979455;28;20144;-61
2022/04/06 03:59:15;;;;;;;32.25;7.47;;;;;;;8.53;82.68;100165.19;4962487;28;20046;-60
2022/04/06 04:01:41;;;;;;;27.33;7.90;;;;;;;8.50;82.64;100159.22;4962764;28;20100;-61
2022/04/06 04:04:06;;;;;;;17.25;6.00;;;;;;;8.51;81.54;100164.41;4979927;28;20340;-61
2022/04/06 04:06:32;;;;;;;21.23;6.53;;;;;;;8.49;82.29;100160.16;4981681;28;20041;-61
2022/04/06 04:08:57;;;;;;;24.98;7.28;;;;;;;8.50;81.85;100177.81;4983066;28;20038;-61
2022/04/06 04:11:23;;;;;;;16.67;6.50;;;;;;;8.45;81.90;100167.47;4982952;28;20046;-61
2022/04/06 04:13:48;;;;;;;20.60;6.97;;;;;;;8.40;82.35;100164.25;4980472;28;20038;-61
2022/04/06 04:16:14;;;;;;;26.00;8.23;;;;;;;8.36;82.65;100165.41;4962848;28;20054;-60
2022/04/06 04:18:42;;;;;;;31.63;7.05;;;;;;;8.42;81.44;100172.97;4981263;28;20043;-62
2022/04/06 04:23:51;;;;;;;22.92;6.20;;;;;;;8.40;81.79;100166.06;4980588;28;20045;-61
2022/04/06 04:26:16;;;;;;;25.02;6.65;;;;;;;8.43;81.34;100157.88;4979389;28;20050;-61
2022/04/06 04:28:42;;;;;;;17.42;6.60;;;;;;;8.36;82.48;100160.09;4979377;28;20034;-61
2022/04/06 04:31:07;;;;;;;24.45;6.18;;;;;;;8.35;82.34;100161.03;4962244;28;20125;-61
2022/04/06 04:33:33;;;;;;;26.02;6.43;;;;;;;8.34;82.03;100164.63;4980009;28;20485;-61
2022/04/06 04:35:58;;;;;;;23.45;5.10;;;;;;;8.35;81.58;100163.69;4962755;28;20192;-61
2022/04/06 04:38:24;;;;;;;17.67;5.38;;;;;;;8.40;81.07;100164.25;4962471;28;20046;-61
2022/04/06 04:40:49;;;;;;;15.93;5.68;;;;;;;8.39;81.39;100161.72;4980407;28;20117;-61
2022/04/06 04:43:15;;;;;;;24.02;6.25;;;;;;;8.36;81.30;100153.91;4980968;28;20097;-61
2022/04/06 04:45:41;;;;;;;21.08;5.97;;;;;;;8.34;81.44;100154.00;4980468;28;20054;-61
2022/04/06 04:48:06;;;;;;;16.65;5.90;;;;;;;8.37;81.17;100164.44;4977722;28;20046;-61
2022/04/06 04:50:32;;;;;;;22.80;5.82;;;;;;;8.34;81.04;100156.66;4961820;28;20042;-61
2022/04/06 04:52:57;;;;;;;19.00;5.47;;;;;;;8.38;80.57;100152.03;4980003;28;20054;-61
2022/04/06 04:55:22;;;;;;;16.95;4.90;;;;;;;8.38;80.44;100154.69;4980156;28;20061;-61
2022/04/06 04:57:48;;;;;;;23.60;6.10;;;;;;;8.35;80.52;100155.72;4980648;28;20042;-61
2022/04/06 05:00:14;;;;;;;18.17;5.93;;;;;;;8.34;81.11;100153.16;4980182;28;20042;-61
2022/04/06 05:02:39;;;;;;;18.80;5.22;;;;;;;8.33;80.92;100152.28;4980138;28;20097;-61
2022/04/06 05:05:06;;;;;;;23.08;5.60;;;;;;;8.35;80.62;100150.41;4979742;28;20046;-61
2022/04/06 05:07:33;;;;;;;21.88;6.47;;;;;;;8.32;80.70;100150.59;4977548;28;20050;-61
2022/04/06 05:09:58;;;;;;;20.33;5.43;;;;;;;8.29;80.95;100145.50;4977328;28;20850;-61
2022/04/06 05:12:26;;;;;;;16.90;5.50;;;;;;;8.34;80.61;100147.84;4979677;28;20038;-61
2022/04/06 05:14:51;;;;;;;22.13;5.70;;;;;;;8.32;80.75;100139.97;4979788;28;20056;-61
2022/04/06 05:17:17;;;;;;;19.48;5.63;;;;;;;8.33;80.48;100141.66;4978353;28;20042;-61
2022/04/06 05:19:42;;;;;;;18.20;5.95;;;;;;;8.33;80.10;100131.03;4976877;28;20101;-61
2022/04/06 05:22:07;;;;;;;19.10;5.15;;;;;;;8.35;80.10;100128.31;4980513;28;20046;-61
2022/04/06 05:24:33;;;;;;;22.73;6.28;;;;;;;8.36;79.75;100130.88;4962446;28;20200;-61
2022/04/06 05:27:00;;;;;;;16.98;5.40;;;;;;;8.41;79.75;100133.22;4979026;28;20116;-61
2022/04/06 05:29:25;;;;;;;15.52;5.68;;;;;;;8.35;80.51;100109.72;4979441;28;20073;-61
2022/04/06 05:31:51;;;;;;;26.88;5.30;;;;;;;8.35;80.66;100120.34;4977763;28;20104;-61
2022/04/06 05:34:16;;;;;;;14.95;5.90;;;;;;;8.35;80.34;100125.66;4975249;28;20039;-61
2022/04/06 05:36:42;;;;;;;21.35;5.70;;;;;;;8.35;81.02;100113.22;4960702;28;20058;-61
2022/04/06 05:39:08;;;;;;;17.15;6.30;;;;;;;8.35;80.39;100117.69;4952448;28;20101;-60
2022/04/06 05:41:34;;;;;;;18.65;6.00;;;;;;;8.35;80.29;100118.53;4980194;28;20041;-60
2022/04/06 05:43:59;;;;;;;17.33;5.10;;;;;;;8.38;79.76;100117.50;4980070;28;20038;-61
2022/04/06 05:46:25;;;;;;;20.60;4.53;;;;;;;8.40;79.50;100110.28;4979430;28;20498;-60
2022/04/06 05:48:50;;;;;;;18.20;4.78;;;;;;;8.41;79.89;100111.97;4979343;28;20108;-61
2022/04/06 05:51:15;;;;;;;14.65;5.03;;;;;;;8.42;80.21;100116.34;4981730;28;20045;-60
2022/04/06 05:53:41;;;;;;;18.58;5.13;;;;;;;8.41;79.73;100119.94;4982228;28;20045;-60
2022/04/06 05:56:06;;;;;;;13.88;5.50;;;;;;;8.43;79.95;100116.22;4983893;28;20117;-61
2022/04/06 05:58:32;;;;;;;16.90;5.95;;;;;;;8.48;79.57;100111.50;4983870;28;20105;-61
2022/04/06 06:00:57;;;;;;;13.68;5.45;;;;;;;8.51;79.14;100111.25;4967071;28;20054;-60
2022/04/06 06:03:22;;;;;;;22.30;5.90;;;;;;;8.53;79.91;100109.38;4982332;28;20061;-61
2022/04/06 06:05:48;;;;;;;17.58;5.20;;;;;;;8.56;80.22;100105.66;4965566;28;20057;-62
2022/04/06 06:08:14;;;;;;;14.50;5.65;;;;;;;8.54;79.56;100115.53;4984131;28;20041;-63
2022/04/06 06:10:39;;;;;;;18.02;6.00;;;;;;;8.60;79.44;100106.31;4966138;28;20835;-63
2022/04/06 06:13:04;;;;;;;17.92;6.20;;;;;;;8.61;79.53;100108.84;4983843;28;20046;-63
2022/04/06 06:15:30;;;;;;;18.67;6.30;;;;;;;8.65;79.61;100106.84;4983626;28;20088;-63
2022/04/06 06:17:55;;;;;;;22.25;6.90;;;;;;;8.60;79.68;100112.47;4983771;28;20108;-63
2022/04/06 06:20:21;;;;;;;19.42;6.32;;;;;;;8.64;79.44;100106.00;4983527;28;20490;-63
2022/04/06 06:22:46;;;;;;;23.27;7.05;;;;;;;8.67;79.66;100107.59;4982458;28;20038;-63
2022/04/06 06:25:12;;;;;;;23.77;7.00;;;;;;;8.71;79.79;100106.44;4964451;28;20051;-63
2022/04/06 06:27:41;;;;;;;30.88;9.30;;;;;;;8.79;79.29;100096.13;4982799;28;20038;-63
2022/04/06 06:30:09;;;;;;;20.60;7.20;;;;;;;8.83;79.52;100100.25;4982694;28;20038;-63
2022/04/06 06:32:35;;;;;;;27.77;8.05;;;;;;;8.82;79.52;100099.41;4982523;28;20085;-62
2022/04/06 06:35:00;;;;;;;22.15;7.15;;;;;;;8.84;79.63;100101.16;4965091;28;20053;-62
2022/04/06 06:37:26;;;;;;;23.75;7.88;;;;;;;8.89;79.60;100102.53;4964498;28;20570;-61
2022/04/06 06:39:54;;;;;;;25.85;7.97;;;;;;;8.92;79.60;100107.63;4982628;28;20042;-61
2022/04/06 06:42:20;;;;;;;26.67;8.20;;;;;;;8.89;79.73;100099.03;4964807;28;20065;-61
2022/04/06 06:44:45;;;;;;;27.85;9.38;;;;;;;8.86;79.94;100105.38;4974230;28;20477;-61
2022/04/06 06:47:11;;;;;;;24.60;8.02;;;;;;;8.90;79.59;100090.94;5001657;28;20513;-62
2022/04/06 06:49:38;;;;;;;15.18;7.78;;;;;;;8.96;78.76;100094.97;5001891;28;20044;-61
2022/04/06 06:52:04;;;;;;;22.35;8.13;;;;;;;9.03;79.51;100089.13;5002227;28;20585;-61
2022/04/06 06:54:29;;;;;;;15.80;7.53;;;;;;;9.01;78.18;100096.34;5002578;28;20142;-61
2022/04/06 06:56:54;;;;;;;25.77;7.70;;;;;;;9.04;78.76;100084.69;5002193;28;20831;-61
2022/04/06 06:59:20;;;;;;;25.40;8.40;;;;;;;9.11;77.89;100093.06;5001842;28;20037;-60
2022/04/06 07:01:45;;;;;;;21.38;7.30;;;;;;;9.17;78.01;100089.97;5001072;28;20038;-63
2022/04/06 07:04:11;;;;;;;24.48;7.55;;;;;;;9.12;77.91;100078.81;5001630;28;20073;-62
2022/04/06 07:06:36;;;;;;;20.92;7.85;;;;;;;9.23;77.77;100078.91;5001273;28;20041;-61
2022/04/06 07:09:01;;;;;;;17.60;6.88;;;;;;;9.17;77.59;100084.66;4983553;28;20045;-61
2022/04/06 07:11:27;;;;;;;15.52;6.03;;;;;;;9.11;77.26;100072.63;5001132;28;20037;-61
2022/04/06 07:13:52;;;;;;;22.63;5.95;;;;;;;9.16;77.33;100075.81;5001054;28;20049;-61
2022/04/06 07:16:19;;;;;;;21.55;7.70;;;;;;;9.20;77.49;100073.81;4983550;28;20054;-61
2022/04/06 07:18:44;;;;;;;16.70;6.20;;;;;;;9.18;77.30;100081.03;4963081;28;20142;-61
2022/04/06 07:21:10;;;;;;;19.98;5.85;;;;;;;9.24;76.91;100075.31;4970267;28;20093;-61
2022/04/06 07:23:36;;;;;;;18.52;6.43;;;;;;;9.41;76.22;100071.44;4964752;28;20517;-61
2022/04/06 07:26:02;;;;;;;17.23;6.05;;;;;;;9.48;75.41;100064.72;4983405;28;20088;-61
2022/04/06 07:28:27;;;;;;;18.63;5.18;;;;;;;9.46;76.17;100074.63;4981434;28;20945;-61
2022/04/06 07:30:53;;;;;;;12.75;4.45;;;;;;;9.47;75.48;100079.84;4981486;28;20423;-61
2022/04/06 07:33:18;;;;;;;14.05;4.88;;;;;;;9.49;74.85;100069.94;4979506;28;20452;-61
2022/04/06 07:35:44;;;;;;;9.63;3.97;;;;;;;9.52;74.38;100061.72;4981097;28;20057;-61
2022/04/06 07:38:12;;;;;;;9.52;3.85;;;;;;;9.49;74.04;100063.78;4980457;28;20120;-61
2022/04/06 07:40:37;;;;;;;11.95;3.67;;;;;;;9.69;73.40;100059.66;4981319;28;20054;-61
2022/04/06 07:43:03;;;;;;;11.38;4.55;;;;;;;9.72;72.53;100056.78;4981665;28;20050;-61
2022/04/06 07:45:28;;;;;;;13.70;3.70;;;;;;;9.58;72.61;100053.28;4996061;28;20125;-61
2022/04/06 07:47:54;;;;;;;10.57;3.65;;;;;;;9.54;72.15;100051.84;5000411;28;20037;-61
2022/04/06 07:50:21;;;;;;;13.15;3.53;;;;;;;9.58;71.37;100044.47;4986907;28;20054;-62
2022/04/06 07:52:47;;;;;;;11.27;3.63;;;;;;;9.59;69.96;100039.06;4983619;28;20042;-61
2022/04/06 07:55:13;;;;;;;7.40;3.38;;;;;;;9.68;71.48;100047.31;4983211;28;20089;-62
2022/04/06 07:57:39;;;;;;;13.07;3.55;;;;;;;9.66;69.95;100041.25;4983742;28;20112;-61
2022/04/06 08:00:15;;;;;;;13.90;3.38;;;;;;;9.78;69.42;100041.22;4982436;28;20145;-62
2022/04/06 08:02:43;;;;;;;6.75;3.03;;;;;;;9.96;69.50;100041.69;4980541;28;20038;-61
2022/04/06 08:05:09;;;;;;;12.10;3.20;;;;;;;10.01;69.77;100041.34;4964615;28;20034;-62
2022/04/06 08:07:39;;;;;;;16.17;4.10;;;;;;;9.90;67.83;100043.97;4964894;28;20050;-62
2022/04/06 08:10:09;;;;;;;7.07;3.03;;;;;;;10.09;68.91;100039.81;4981391;28;20048;-61
2022/04/06 08:12:37;;;;;;;10.45;2.38;;;;;;;10.08;68.37;100045.25;4980686;28;20050;-61
2022/04/06 08:15:03;;;;;;;9.57;3.13;;;;;;;10.02;67.63;100041.22;4980581;28;20408;-61
2022/04/06 08:17:34;;;;;;;11.25;3.30;;;;;;;10.15;67.47;100035.00;4980771;28;20050;-63
2022/04/06 08:20:00;;;;;;;4.38;2.53;;;;;;;10.31;67.61;100023.09;4978342;28;20113;-62
2022/04/06 08:22:25;;;;;;;9.02;3.33;;;;;;;10.29;67.09;100024.16;4979195;28;20038;-61
2022/04/06 08:24:51;;;;;;;7.40;2.63;;;;;;;10.22;66.20;100030.91;4980218;28;20399;-61
2022/04/06 08:27:16;;;;;;;12.38;2.90;;;;;;;10.32;65.76;100027.47;4961527;28;20042;-62
2022/04/06 08:29:41;;;;;;;5.72;2.22;;;;;;;10.40;66.19;100037.56;4963004;28;20042;-61
2022/04/06 08:32:07;;;;;;;10.55;2.55;;;;;;;10.32;65.93;100026.63;4980842;28;20066;-65
2022/04/06 08:34:39;;;;;;;9.38;2.35;;;;;;;10.28;66.42;100020.66;5096518;27;20617;-61
2022/04/06 08:37:05;;;;;;;10.32;2.58;;;;;;;10.24;67.09;100037.88;5096556;28;20515;-62
2022/04/06 08:39:30;;;;;;;11.45;3.08;;;;;;;10.42;66.78;100037.44;5095465;28;20412;-61
2022/04/06 08:41:56;;;;;;;14.85;2.70;;;;;;;10.46;67.27;100030.91;5097167;28;20046;-62
2022/04/06 08:44:23;;;;;;;6.13;2.13;;;;;;;10.44;66.27;100033.69;5097189;28;20051;-61
2022/04/06 08:46:51;;;;;;;13.27;2.60;;;;;;;10.38;66.21;100039.47;5085437;28;20040;-62
2022/04/06 08:49:16;;;;;;;8.10;2.97;;;;;;;10.18;68.48;100035.59;5096657;28;20040;-61
2022/04/06 08:51:45;;;;;;;9.93;3.53;;;;;;;10.20;67.52;100040.84;5096015;28;20120;-61
2022/04/06 08:54:10;;;;;;;8.18;2.92;;;;;;;10.35;68.17;100043.22;5095979;28;20777;-62
2022/04/06 08:56:36;;;;;;;9.40;3.30;;;;;;;10.35;66.72;100027.25;5096299;28;20048;-61
2022/04/06 08:59:03;;;;;;;13.25;3.65;;;;;;;10.39;67.53;100030.50;5096742;28;20097;-63
2022/04/06 09:01:31;;;;;;;8.57;3.45;;;;;;;10.49;67.94;100030.66;5096909;28;20040;-63
2022/04/06 09:03:59;;;;;;;12.80;4.00;;;;;;;10.47;68.56;100036.13;5085643;28;20121;-63
2022/04/06 09:06:26;;;;;;;11.65;4.30;;;;;;;10.53;68.19;100042.78;5096192;28;20130;-63
2022/04/06 09:08:51;;;;;;;14.15;4.00;;;;;;;10.66;69.15;100040.91;5081896;28;20350;-60
2022/04/06 09:11:20;;;;;;;9.75;4.68;;;;;;;10.31;69.89;100038.25;5075320;28;20033;-60
2022/04/06 09:13:48;;;;;;;11.60;4.68;;;;;;;10.37;70.37;100037.78;5079780;28;20129;-63
2022/04/06 09:16:17;;;;;;;15.55;5.05;;;;;;;10.35;70.75;100042.38;5081033;28;20044;-63
2022/04/06 09:18:45;;;;;;;12.10;5.40;;;;;;;10.18;71.24;100032.09;5076890;28;20128;-63
2022/04/06 09:21:18;;;;;;;17.02;5.63;;;;;;;10.26;71.91;100035.06;5060946;28;20032;-63
2022/04/06 09:23:51;;;;;;;17.35;4.68;;;;;;;10.30;72.98;100028.56;5078639;28;20040;-63
2022/04/06 09:26:20;;;;;;;19.63;5.80;;;;;;;10.01;72.66;100034.19;5085855;28;20059;-63
2022/04/06 09:28:50;;;;;;;12.52;6.28;;;;;;;10.14;72.94;100028.81;5080470;28;20119;-63
2022/04/06 09:31:16;;;;;;;10.68;5.43;;;;;;;10.32;72.78;100039.94;5074014;28;20389;-63
2022/04/06 09:33:55;;;;;;;12.68;5.15;;;;;;;10.16;73.70;100042.03;5075324;28;20065;-63
2022/04/06 09:36:21;;;;;;;14.90;6.55;;;;;;;10.30;73.92;100028.56;5075404;28;20040;-63
2022/04/06 09:38:48;;;;;;;9.90;5.97;;;;;;;10.13;73.65;100025.28;5075428;28;20101;-62
2022/04/06 09:41:15;;;;;;;13.40;6.45;;;;;;;9.90;75.17;100034.16;5075009;28;20089;-63
2022/04/06 09:43:41;;;;;;;14.50;7.13;;;;;;;9.78;75.37;100037.69;5079690;28;20040;-63
2022/04/06 09:49:14;;;;;;;17.70;7.55;;;;;;;9.72;76.84;100038.16;5072084;28;20444;-62
2022/04/06 09:51:44;;;;;;;14.25;7.05;;;;;;;9.78;76.78;100025.22;5071083;28;20055;-63
2022/04/06 09:54:12;;;;;;;10.82;6.88;;;;;;;9.69;77.60;100025.94;5081184;28;20036;-63
2022/04/06 09:56:38;;;;;;;19.48;7.45;;;;;;;9.74;77.54;100026.44;5081602;28;20040;-63
2022/04/06 09:59:04;;;;;;;17.60;7.65;;;;;;;9.91;76.90;100027.84;5081416;28;20028;-63
2022/04/06 10:01:48;;;;;;;16.75;7.25;;;;;;;9.85;77.15;100030.97;5080414;28;20552;-62
2022/04/06 10:04:17;;;;;;;17.00;7.45;;;;;;;9.79;78.45;100031.44;5080213;28;20085;-62
2022/04/06 10:06:43;;;;;;;20.40;7.60;;;;;;;9.62;78.66;100027.31;5079554;28;20789;-63
2022/04/06 10:09:14;;;;;;;14.07;7.63;;;;;;;9.53;80.29;100034.16;5081782;28;20135;-62
2022/04/06 10:11:40;;;;;;;12.18;6.72;;;;;;;9.65;81.42;100020.94;5081669;28;21070;-62
2022/04/06 10:14:08;;;;;;;17.63;8.82;;;;;;;9.47;81.36;100023.09;5081147;28;20075;-62
2022/04/06 10:16:36;;;;;;;18.80;8.43;;;;;;;9.74;81.31;100018.47;5079374;28;20496;-63
2022/04/06 10:19:02;;;;;;;13.38;7.70;;;;;;;9.74;81.37;100018.47;5072039;28;20212;-62
2022/04/06 10:22:02;;;;;;;19.33;8.07;;;;;;;9.71;81.26;100010.69;5071634;28;20040;-62
2022/04/06 10:24:53;;;;;;;13.70;7.38;;;;;;;9.67;81.38;100008.34;5072693;28;20044;-63
2022/04/06 10:27:28;;;;;;;11.55;7.50;;;;;;;9.63;81.64;100009.53;5074778;28;20051;-62
2022/04/06 10:30:05;;;;;;;13.65;7.82;;;;;;;9.88;80.88;100005.91;5063461;28;20056;-62
2022/04/06 10:32:34;;;;;;;17.25;8.27;;;;;;;10.00;81.15;99997.03;5061264;28;20045;-62
2022/04/06 10:35:18;;;;;;;18.13;7.90;;;;;;;10.13;80.79;99997.78;5061347;28;20044;-62
2022/04/06 10:37:56;;;;;;;13.00;7.10;;;;;;;9.85;81.70;99986.56;5061273;28;20052;-62
2022/04/06 10:40:22;;;;;;;17.77;8.23;;;;;;;9.67;81.83;99992.38;5081014;28;20089;-62
2022/04/06 10:42:48;;;;;;;22.95;7.95;;;;;;;9.54;81.75;99987.13;5080946;28;20043;-62
2022/04/06 10:45:29;;;;;;;17.13;7.75;;;;;;;9.67;81.83;99992.38;5070367;28;20039;-62
2022/04/06 10:48:14;;;;;;;20.58;8.55;;;;;;;9.55;81.81;99988.81;5060889;28;20113;-62
2022/04/06 10:50:41;;;;;;;17.63;7.63;;;;;;;9.46;81.60;99974.34;5069041;28;20040;-62
2022/04/06 10:53:21;;;;;;;14.68;8.13;;;;;;;9.41;82.44;99988.97;5064215;28;20040;-62
2022/04/06 10:56:12;;;;;;;13.55;7.95;;;;;;;9.60;81.82;99984.00;5064143;28;20028;-62
2022/04/06 10:58:55;;;;;;;19.13;7.93;;;;;;;9.68;82.21;99978.09;5064273;28;20384;-62
2022/04/06 11:01:33;;;;;;;21.10;7.43;;;;;;;9.63;81.73;99981.09;5062856;28;20074;-63
2022/04/06 11:04:15;;;;;;;22.08;7.65;;;;;;;9.73;81.70;99982.13;5064215;28;20525;-62
2022/04/06 11:06:40;;;;;;;18.05;8.27;;;;;;;9.89;81.42;99975.66;5064158;28;20040;-62
2022/04/06 11:12:12;;;;;;;;;;;;;;;9.49;82.05;99974.16;5061529;28;20124;-62
2022/04/06 11:14:38;;;;;;;24.45;6.90;;;;;;;9.65;81.98;99973.03;5069665;28;19927;-62
2022/04/06 11:17:34;;;;;;;18.02;7.95;;;;;;;9.51;82.90;99969.56;5063197;28;20037;-62
2022/04/06 11:20:03;;;;;;;17.42;7.20;;;;;;;9.64;82.83;99968.63;5067665;28;20029;-62
2022/04/06 11:22:28;;;;;;;16.52;7.45;;;;;;;9.54;82.12;99969.34;5062517;28;20048;-66
2022/04/06 11:24:54;;;;;;;18.38;8.10;;;;;;;9.48;82.83;99960.94;5064155;28;20047;-62
2022/04/06 11:27:29;;;;;;;18.17;7.40;;;;;;;9.58;82.85;99962.81;5063693;28;20032;-63
2022/04/06 11:30:01;;;;;;;16.25;7.25;;;;;;;9.59;83.11;99964.53;5064803;28;20832;-63
2022/04/06 11:32:27;;;;;;;;;;;;;;;9.60;82.09;99958.22;5065967;28;20041;-63
2022/04/06 11:35:05;;;;;;;11.98;6.88;;;;;;;9.50;82.55;99959.88;5064168;28;19931;-62